Evensville, TN (37332)

5:46 PM EDT on May 30, 2015 (GMT -0400)
Spring City, Wolf Creek on Watts Bar Lake | | Change Station
CLOSE
Current Station
Personal Weather Station
Location: Spring City, TN
Elevation: 787 ft
Nearby Weather Stations

Elev 787 ft 35.66 °N, 84.85 °W | Updated 1 minute ago

Partly Cloudy
Partly Cloudy
85.5 °F
Feels Like 88 °F
N
2.7
Wind Variable Wind from SSW

Today
High -- | Low -- °F
--% Chance of Precip.
Yesterday
High -- | Low -- °F
Precip. -- in
6:26 AM 8:48 PM
Waxing Gibbous, 92% visible
Pressure 30.06 in
Visibility 10.0 miles
Clouds Clear
Heat Index 88 °F
Dew Point 66 °F
Humidity 52%
Rainfall 0.00 in
Snow Depth Not available.
UV 7 out of 12
Pollen 6.30 out of 12
Air Quality Not available.
Flu Activity Sporadic
METAR KCSV 302053Z AUTO VRB06KT 10SM CLR 27/14 A3012 RMK AO2 SLP177 T02670144 56018

More Conditions Fewer Conditions

Pressure 30.06 in
Visibility 10.0 miles
Clouds Clear
Heat Index 88 °F
Dew Point 66 °F
Humidity 52%
Rainfall 0.00 in
Snow Depth Not available.
UV 7 out of 12
Pollen 6.30 out of 12
Air Quality Not available.
Flu Activity Sporadic
METAR KCSV 302053Z AUTO VRB06KT 10SM CLR 27/14 A3012 RMK AO2 SLP177 T02670144 56018

More Conditions Fewer Conditions

10-Day Weather Forecast

Almanac

Astronomy

May. 30, 2015 Rise Set
Actual Time
Civil Twilight
Nautical Twilight
Astronomical Twilight
Moon
Length of Visible Light
Length of Day
Tomorrow will be .
, % of the Moon is Illuminated

Today's Extremes

State Highs State Lows

Community

WunderPhotos

Upload Photos

1,825,608 photos uploaded!

WunderBlogs® & News

Nearby

Air Quality

  Air Quality AQ Index Pollutant
Not available.

Snow Depth

Station Depth Elevation

Earthquake Activity

City Distance Mag. Time & Date
Minimum magnitude displayed is 2.5.

Coastal Water Temperatures

Place Temperature

Stations

Nearby Weather Stations

Station Location Temp. Windchill Dew Point Humidity Wind Precip. Elev Updated Type